createdAt,value
2023-03-17T00:01:44.542Z,101001.94
2023-03-17T00:04:12.581Z,100990.22
2023-03-17T00:06:41.171Z,100983.94
2023-03-17T00:09:14.540Z,100986.94
2023-03-17T00:11:41.519Z,100986.56
2023-03-17T00:14:09.931Z,100991.16
2023-03-17T00:16:42.253Z,100993.63
2023-03-17T00:19:16.422Z,100985.88
2023-03-17T00:21:45.067Z,100991.16
2023-03-17T00:24:14.902Z,100988.34
2023-03-17T00:26:43.151Z,100989.00
2023-03-17T00:29:11.958Z,100985.19
2023-03-17T00:31:40.110Z,100991.47
2023-03-17T00:34:11.392Z,100989.19
2023-03-17T00:36:38.523Z,100992.78
2023-03-17T00:41:39.798Z,100993.81
2023-03-17T00:44:06.700Z,100996.16
2023-03-17T00:46:37.828Z,100990.25
2023-03-17T00:51:43.748Z,100995.59
2023-03-17T00:54:11.813Z,100987.84
2023-03-17T00:56:41.479Z,100981.09
2023-03-17T00:59:20.511Z,100977.81
2023-03-17T01:01:49.100Z,100962.00
2023-03-17T01:04:16.346Z,100961.19
2023-03-17T01:06:43.393Z,100959.03
2023-03-17T01:09:14.658Z,100966.28
2023-03-17T01:11:42.044Z,100950.47
2023-03-17T01:14:09.902Z,100957.06
2023-03-17T01:16:36.773Z,100953.28
2023-03-17T01:19:05.821Z,100965.28
2023-03-17T01:21:32.793Z,100959.38
2023-03-17T01:24:00.281Z,100962.34
2023-03-17T01:26:27.218Z,100964.97
2023-03-17T01:28:54.647Z,100957.91
2023-03-17T01:31:23.400Z,100947.22
2023-03-17T01:33:51.260Z,100945.56
2023-03-17T01:36:20.533Z,100948.72
2023-03-17T01:38:50.911Z,100951.88
2023-03-17T01:41:18.184Z,100947.44
2023-03-17T01:43:45.090Z,100939.69
2023-03-17T01:46:27.484Z,100939.03
2023-03-17T01:49:15.474Z,100942.38
2023-03-17T01:51:53.829Z,100960.00
2023-03-17T01:54:26.385Z,100959.81
2023-03-17T01:56:58.240Z,100935.66
2023-03-17T01:59:31.495Z,100942.00
2023-03-17T02:02:04.850Z,100941.03
2023-03-17T02:04:33.959Z,100943.66
2023-03-17T02:07:04.968Z,100951.25
2023-03-17T02:09:34.036Z,100949.63
2023-03-17T02:12:03.015Z,100934.81
2023-03-17T02:14:30.238Z,100924.91
2023-03-17T02:16:57.472Z,100922.94
2023-03-17T02:19:25.270Z,100930.84
2023-03-17T02:21:57.978Z,100924.59
2023-03-17T02:24:35.791Z,100916.03
2023-03-17T02:27:08.504Z,100927.75
2023-03-17T02:29:37.680Z,100937.44
2023-03-17T02:32:05.763Z,100924.47
2023-03-17T02:34:33.880Z,100926.78
2023-03-17T02:37:02.153Z,100928.78
2023-03-17T02:39:29.028Z,100924.69
2023-03-17T02:41:56.154Z,100923.66
2023-03-17T02:44:23.087Z,100908.19
2023-03-17T02:46:49.936Z,100903.13
2023-03-17T02:49:18.335Z,100893.75
2023-03-17T02:51:45.850Z,100890.28
2023-03-17T02:54:14.137Z,100880.28
2023-03-17T02:56:41.857Z,100866.69
2023-03-17T02:59:09.707Z,100847.84
2023-03-17T03:01:36.814Z,100850.50
2023-03-17T03:04:04.237Z,100869.59
2023-03-17T03:06:31.711Z,100878.47
2023-03-17T03:08:59.329Z,100879.41
2023-03-17T03:11:29.170Z,100887.66
2023-03-17T03:13:56.219Z,100902.97
2023-03-17T03:16:23.125Z,100892.91
2023-03-17T03:18:50.133Z,100884.69
2023-03-17T03:21:17.267Z,100882.69
2023-03-17T03:23:44.272Z,100882.56
2023-03-17T03:26:12.031Z,100894.06
2023-03-17T03:28:40.575Z,100895.91
2023-03-17T03:31:08.080Z,100896.72
2023-03-17T03:33:36.399Z,100885.38
2023-03-17T03:36:03.692Z,100882.44
2023-03-17T03:38:30.637Z,100866.81
2023-03-17T03:40:57.700Z,100867.16
2023-03-17T03:43:24.620Z,100860.88
2023-03-17T03:45:54.441Z,100868.47
2023-03-17T03:48:22.450Z,100872.63
2023-03-17T03:50:49.700Z,100872.44
2023-03-17T03:53:16.726Z,100866.03
2023-03-17T03:55:43.629Z,100865.38
2023-03-17T03:58:11.242Z,100872.25
2023-03-17T04:00:38.296Z,100877.53
2023-03-17T04:03:06.543Z,100864.72
2023-03-17T04:05:34.108Z,100864.56
2023-03-17T04:08:01.117Z,100865.72
2023-03-17T04:10:28.315Z,100862.94
2023-03-17T04:12:56.230Z,100853.91
2023-03-17T04:15:23.380Z,100856.22
2023-03-17T04:17:50.882Z,100859.88
2023-03-17T04:20:19.500Z,100861.84
2023-03-17T04:22:46.616Z,100861.16
2023-03-17T04:25:15.370Z,100861.84
2023-03-17T04:27:43.303Z,100856.28
2023-03-17T04:30:16.706Z,100862.84
2023-03-17T04:32:44.643Z,100866.78
2023-03-17T04:35:14.518Z,100857.91
2023-03-17T04:37:43.229Z,100855.13
2023-03-17T04:40:12.896Z,100848.88
2023-03-17T04:42:40.553Z,100842.13
2023-03-17T04:45:11.191Z,100839.81
2023-03-17T04:47:39.315Z,100837.53
2023-03-17T04:50:08.784Z,100837.19
2023-03-17T04:52:36.768Z,100834.56
2023-03-17T04:55:08.208Z,100837.06
2023-03-17T04:57:35.211Z,100837.53
2023-03-17T05:00:02.124Z,100836.38
2023-03-17T05:02:29.328Z,100831.09
2023-03-17T05:04:56.335Z,100825.38
2023-03-17T05:07:23.330Z,100824.41
2023-03-17T05:09:50.210Z,100815.69
2023-03-17T05:12:18.542Z,100819.16
2023-03-17T05:14:45.471Z,100811.28
2023-03-17T05:17:12.461Z,100812.25
2023-03-17T05:19:39.544Z,100817.31
2023-03-17T05:22:07.118Z,100816.34
2023-03-17T05:24:34.280Z,100821.09
2023-03-17T05:27:01.192Z,100821.28
2023-03-17T05:29:29.972Z,100817.84
2023-03-17T05:31:56.904Z,100812.94
2023-03-17T05:34:23.840Z,100820.97
2023-03-17T05:36:51.009Z,100824.25
2023-03-17T05:39:17.923Z,100815.91
2023-03-17T05:41:44.885Z,100822.44
2023-03-17T05:44:11.790Z,100814.25
2023-03-17T05:46:40.577Z,100816.72
2023-03-17T05:49:07.800Z,100819.50
2023-03-17T05:51:36.815Z,100810.97
2023-03-17T05:54:04.372Z,100810.25
2023-03-17T05:56:33.613Z,100822.06
2023-03-17T05:59:01.584Z,100828.16
2023-03-17T06:01:28.633Z,100828.00
2023-03-17T06:03:57.116Z,100822.06
2023-03-17T06:06:24.516Z,100813.50
2023-03-17T06:08:51.576Z,100819.09
2023-03-17T06:11:20.595Z,100823.38
2023-03-17T06:13:48.250Z,100823.03
2023-03-17T06:16:15.550Z,100816.44
2023-03-17T06:18:42.655Z,100817.09
2023-03-17T06:21:11.610Z,100813.47
2023-03-17T06:23:38.620Z,100817.72
2023-03-17T06:26:06.302Z,100817.09
2023-03-17T06:28:33.211Z,100825.97
2023-03-17T06:31:00.283Z,100822.03
2023-03-17T06:33:28.163Z,100830.25
2023-03-17T06:35:55.089Z,100825.63
2023-03-17T06:38:23.310Z,100818.22
2023-03-17T06:40:50.615Z,100826.25
2023-03-17T06:43:19.445Z,100829.19
2023-03-17T06:45:46.841Z,100829.31
2023-03-17T06:48:13.901Z,100834.38
2023-03-17T06:50:40.991Z,100830.34
2023-03-17T06:53:08.110Z,100832.13
2023-03-17T06:55:36.453Z,100827.28
2023-03-17T06:58:03.480Z,100829.50
2023-03-17T07:00:30.498Z,100835.34
2023-03-17T07:02:57.786Z,100830.97
2023-03-17T07:05:24.802Z,100842.94
2023-03-17T07:07:51.754Z,100845.56
2023-03-17T07:10:19.144Z,100839.75
2023-03-17T07:12:47.799Z,100839.63
2023-03-17T07:15:15.439Z,100832.88
2023-03-17T07:17:42.621Z,100822.31
2023-03-17T07:20:11.697Z,100814.38
2023-03-17T07:22:38.662Z,100812.44
2023-03-17T07:25:07.797Z,100820.38
2023-03-17T07:27:34.680Z,100809.59
2023-03-17T07:30:04.929Z,100811.81
2023-03-17T07:32:32.616Z,100812.84
2023-03-17T07:34:59.757Z,100824.88
2023-03-17T07:37:26.659Z,100826.72
2023-03-17T07:39:53.571Z,100817.59
2023-03-17T07:42:20.618Z,100830.22
2023-03-17T07:44:47.643Z,100828.75
2023-03-17T07:47:16.211Z,100834.41
2023-03-17T07:49:43.386Z,100827.97
2023-03-17T07:52:11.390Z,100831.22
2023-03-17T07:54:41.526Z,100828.97
2023-03-17T07:57:10.917Z,100824.00
2023-03-17T07:59:38.269Z,100824.63
2023-03-17T08:02:05.351Z,100825.16
2023-03-17T08:04:34.884Z,100811.59
2023-03-17T08:07:01.849Z,100826.28
2023-03-17T08:09:28.754Z,100818.44
2023-03-17T08:11:56.314Z,100812.13
2023-03-17T08:14:23.256Z,100808.50
2023-03-17T08:16:50.253Z,100815.38
2023-03-17T08:19:17.469Z,100806.34
2023-03-17T08:21:45.802Z,100801.16
2023-03-17T08:24:12.683Z,100800.53
2023-03-17T08:26:39.653Z,100787.97
2023-03-17T08:29:07.918Z,100786.94
2023-03-17T08:31:35.743Z,100788.84
2023-03-17T08:34:03.027Z,100788.88
2023-03-17T08:36:30.629Z,100790.25
2023-03-17T08:38:59.181Z,100782.69
2023-03-17T08:41:28.154Z,100785.81
2023-03-17T08:43:56.052Z,100779.53
2023-03-17T08:46:25.992Z,100774.88
2023-03-17T08:48:56.347Z,100767.13
2023-03-17T08:51:26.744Z,100770.25
2023-03-17T08:53:55.203Z,100774.25
2023-03-17T08:56:23.553Z,100775.59
2023-03-17T08:58:51.812Z,100777.19
2023-03-17T09:01:21.216Z,100769.84
2023-03-17T09:03:49.435Z,100786.91
2023-03-17T09:06:16.459Z,100784.72
2023-03-17T09:08:45.069Z,100779.19
2023-03-17T09:11:16.583Z,100786.03
2023-03-17T09:13:46.434Z,100794.53
2023-03-17T09:16:14.718Z,100785.91
2023-03-17T09:18:42.241Z,100783.94
2023-03-17T09:21:11.614Z,100793.50
2023-03-17T09:23:38.650Z,100785.41
2023-03-17T09:26:06.203Z,100776.97
2023-03-17T09:28:33.829Z,100779.09
2023-03-17T09:31:06.113Z,100770.78
2023-03-17T09:33:33.168Z,100772.56
2023-03-17T09:36:00.182Z,100769.38
2023-03-17T09:38:28.057Z,100769.88
2023-03-17T09:41:09.701Z,100773.25
2023-03-17T09:43:52.268Z,100771.88
2023-03-17T09:46:37.509Z,100773.13
2023-03-17T09:49:09.418Z,100767.59
2023-03-17T09:51:36.687Z,100771.22
2023-03-17T09:54:11.092Z,100778.00
2023-03-17T09:56:46.070Z,100775.72
2023-03-17T09:59:34.258Z,100777.66
2023-03-17T10:02:03.106Z,100776.38
2023-03-17T10:04:30.108Z,100771.06
2023-03-17T10:07:04.478Z,100771.63
2023-03-17T10:09:40.070Z,100771.19
2023-03-17T10:12:18.272Z,100769.88
2023-03-17T10:14:58.482Z,100768.22
2023-03-17T10:17:31.976Z,100761.13
2023-03-17T10:20:06.723Z,100758.63
2023-03-17T10:22:41.732Z,100759.75
2023-03-17T10:25:15.632Z,100766.91
2023-03-17T10:27:51.561Z,100764.97
2023-03-17T10:30:23.546Z,100771.34
2023-03-17T10:32:57.318Z,100769.91
2023-03-17T10:35:25.380Z,100775.09
2023-03-17T10:38:04.423Z,100758.91
2023-03-17T10:40:38.845Z,100754.97
2023-03-17T10:43:11.073Z,100745.81
2023-03-17T10:45:44.146Z,100746.28
2023-03-17T10:48:18.905Z,100757.00
2023-03-17T10:50:49.300Z,100761.31
2023-03-17T10:53:29.312Z,100764.03
2023-03-17T10:56:06.701Z,100770.84
2023-03-17T10:58:39.603Z,100755.09
2023-03-17T11:01:15.428Z,100751.88
2023-03-17T11:03:44.131Z,100743.28
2023-03-17T11:06:13.717Z,100749.22
2023-03-17T11:08:46.997Z,100750.25
2023-03-17T11:11:26.270Z,100755.59
2023-03-17T11:14:02.413Z,100754.56
2023-03-17T11:16:34.891Z,100739.44
2023-03-17T11:19:11.467Z,100744.25
2023-03-17T11:21:55.003Z,100724.50
2023-03-17T11:24:30.847Z,100734.88
2023-03-17T11:27:09.129Z,100721.38
2023-03-17T11:30:01.774Z,100716.03
2023-03-17T11:32:37.843Z,100714.31
2023-03-17T11:35:34.153Z,100730.06
2023-03-17T11:38:24.713Z,100724.56
2023-03-17T11:41:23.996Z,100722.34
2023-03-17T11:44:18.325Z,100728.78
2023-03-17T11:46:56.236Z,100721.84
2023-03-17T11:49:32.917Z,100706.47
2023-03-17T11:52:11.115Z,100717.53
2023-03-17T11:54:50.567Z,100703.88
2023-03-17T11:57:27.145Z,100711.44
2023-03-17T12:00:00.603Z,100711.97
2023-03-17T12:02:37.387Z,100715.63
2023-03-17T12:05:09.683Z,100712.19
2023-03-17T12:07:44.801Z,100714.00
2023-03-17T12:10:22.617Z,100705.44
2023-03-17T12:12:56.363Z,100710.84
2023-03-17T12:15:32.985Z,100718.06
2023-03-17T12:18:10.765Z,100700.28
2023-03-17T12:20:49.701Z,100702.63
2023-03-17T12:23:33.446Z,100705.75
2023-03-17T12:26:06.919Z,100704.19
2023-03-17T12:28:40.763Z,100709.47
2023-03-17T12:31:14.048Z,100706.03
2023-03-17T12:33:50.010Z,100710.88
2023-03-17T12:36:18.585Z,100708.00
2023-03-17T12:38:56.817Z,100718.25
2023-03-17T12:41:41.451Z,100704.59
2023-03-17T12:44:34.271Z,100695.03
2023-03-17T12:47:33.208Z,100708.56
2023-03-17T12:50:53.138Z,100720.19
2023-03-17T12:53:28.429Z,100716.44
2023-03-17T12:56:06.579Z,100704.94
2023-03-17T12:58:43.973Z,100711.56
2023-03-17T13:01:29.952Z,100695.81
2023-03-17T13:04:17.951Z,100705.25
2023-03-17T13:06:54.945Z,100703.34
2023-03-17T13:09:46.855Z,100697.91
2023-03-17T13:12:57.516Z,100704.88
2023-03-17T13:15:58.682Z,100697.16
2023-03-17T13:18:50.387Z,100694.22
2023-03-17T13:21:25.154Z,100701.53
2023-03-17T13:24:39.881Z,100694.00
2023-03-17T13:27:12.321Z,100701.84
2023-03-17T13:29:45.987Z,100710.16
2023-03-17T13:32:38.413Z,100703.41
2023-03-17T13:35:22.041Z,100706.63
2023-03-17T13:38:37.144Z,100699.00
2023-03-17T13:41:41.542Z,100699.47
2023-03-17T13:44:29.045Z,100691.34
2023-03-17T13:47:15.895Z,100683.28
2023-03-17T13:49:50.586Z,100699.13
2023-03-17T13:52:27.440Z,100695.09
2023-03-17T13:55:05.855Z,100702.56
2023-03-17T13:57:37.180Z,100703.56
2023-03-17T14:00:22.675Z,100702.94
2023-03-17T14:02:59.807Z,100703.50
2023-03-17T14:05:34.703Z,100705.69
2023-03-17T14:08:04.782Z,100684.50
2023-03-17T14:10:34.228Z,100696.03
2023-03-17T14:13:16.232Z,100682.72
2023-03-17T14:15:51.545Z,100684.38
2023-03-17T14:18:22.991Z,100680.22
2023-03-17T14:20:56.187Z,100677.50
2023-03-17T14:23:24.153Z,100691.06
2023-03-17T14:25:54.469Z,100678.41
2023-03-17T14:28:27.280Z,100674.78
2023-03-17T14:30:59.101Z,100668.47
2023-03-17T14:33:28.159Z,100667.28
2023-03-17T14:36:01.500Z,100672.56
2023-03-17T14:38:31.403Z,100682.16
2023-03-17T14:41:04.706Z,100667.88
2023-03-17T14:43:33.333Z,100654.75
2023-03-17T14:46:02.817Z,100646.41
2023-03-17T14:48:34.329Z,100638.03
2023-03-17T14:51:07.890Z,100644.13
2023-03-17T14:53:40.025Z,100644.06
2023-03-17T14:56:08.020Z,100630.63
2023-03-17T14:58:41.421Z,100633.47
2023-03-17T15:01:15.379Z,100644.16
2023-03-17T15:03:56.322Z,100660.81
2023-03-17T15:06:27.445Z,100658.75
2023-03-17T15:08:57.461Z,100671.34
2023-03-17T15:11:28.201Z,100661.97
2023-03-17T15:14:07.108Z,100656.47
2023-03-17T15:16:36.260Z,100659.00
2023-03-17T15:19:08.455Z,100652.63
2023-03-17T15:21:41.951Z,100661.28
2023-03-17T15:24:36.212Z,100665.06
2023-03-17T15:27:06.997Z,100663.44
2023-03-17T15:29:34.365Z,100666.66
2023-03-17T15:32:11.719Z,100674.88
2023-03-17T15:34:39.025Z,100677.66
2023-03-17T15:37:25.076Z,100681.25
2023-03-17T15:39:56.237Z,100675.25
2023-03-17T15:42:27.216Z,100671.47
2023-03-17T15:44:54.744Z,100676.00
2023-03-17T15:47:32.948Z,100684.31
2023-03-17T15:50:13.787Z,100676.75
2023-03-17T15:52:42.988Z,100669.94
2023-03-17T15:55:19.664Z,100672.81
2023-03-17T15:57:54.693Z,100678.16
2023-03-17T16:00:26.552Z,100677.84
2023-03-17T16:02:57.106Z,100680.22
2023-03-17T16:05:28.048Z,100681.75
2023-03-17T16:07:57.725Z,100653.28
2023-03-17T16:10:27.345Z,100632.91
2023-03-17T16:12:55.469Z,100622.47
2023-03-17T16:15:31.282Z,100629.44
2023-03-17T16:18:02.366Z,100641.22
2023-03-17T16:20:37.248Z,100640.38
2023-03-17T16:23:11.921Z,100657.53
2023-03-17T16:25:39.206Z,100663.88
2023-03-17T16:28:16.701Z,100664.88
2023-03-17T16:30:46.088Z,100661.63
2023-03-17T16:33:21.075Z,100661.56
2023-03-17T16:35:49.228Z,100652.97
2023-03-17T16:38:21.190Z,100649.13
2023-03-17T16:40:52.741Z,100649.88
2023-03-17T16:43:25.924Z,100646.09
2023-03-17T16:45:57.596Z,100652.19
2023-03-17T16:48:25.769Z,100661.72
2023-03-17T16:50:53.371Z,100650.13
2023-03-17T16:53:26.028Z,100655.66
2023-03-17T16:55:55.321Z,100638.97
2023-03-17T16:58:25.612Z,100648.50
2023-03-17T17:00:57.472Z,100652.72
2023-03-17T17:03:24.717Z,100655.06
2023-03-17T17:05:51.793Z,100655.31
2023-03-17T17:08:20.693Z,100658.25
2023-03-17T17:10:47.740Z,100663.81
2023-03-17T17:13:15.762Z,100656.31
2023-03-17T17:15:53.212Z,100667.41
2023-03-17T17:18:24.333Z,100672.19
2023-03-17T17:20:53.539Z,100669.41
2023-03-17T17:23:24.315Z,100681.66
2023-03-17T17:25:53.131Z,100682.38
2023-03-17T17:28:23.792Z,100682.28
2023-03-17T17:30:52.531Z,100683.00
2023-03-17T17:33:21.652Z,100683.47
2023-03-17T17:36:12.710Z,100673.97
2023-03-17T17:38:41.185Z,100677.91
2023-03-17T17:41:11.714Z,100678.88
2023-03-17T17:43:38.770Z,100680.63
2023-03-17T17:46:11.395Z,100670.66
2023-03-17T17:48:38.322Z,100677.53
2023-03-17T17:51:06.004Z,100676.94
2023-03-17T17:53:34.245Z,100673.13
2023-03-17T17:56:02.712Z,100685.34
2023-03-17T17:58:30.771Z,100693.56
2023-03-17T18:00:58.274Z,100691.97
2023-03-17T18:03:26.880Z,100699.97
2023-03-17T18:05:56.205Z,100683.94
2023-03-17T18:08:24.020Z,100680.47
2023-03-17T18:10:52.196Z,100672.44
2023-03-17T18:13:20.659Z,100667.09
2023-03-17T18:15:47.711Z,100660.63
2023-03-17T18:18:14.947Z,100659.44
2023-03-17T18:20:42.003Z,100664.22
2023-03-17T18:23:09.179Z,100670.63
2023-03-17T18:25:37.207Z,100679.09
2023-03-17T18:28:06.211Z,100674.78
2023-03-17T18:30:35.843Z,100673.66
2023-03-17T18:33:09.068Z,100671.44
2023-03-17T18:35:37.473Z,100664.97
2023-03-17T18:38:05.223Z,100669.72
2023-03-17T18:40:32.369Z,100680.41
2023-03-17T18:42:59.525Z,100668.09
2023-03-17T18:45:26.990Z,100666.25
2023-03-17T18:47:55.324Z,100661.16
2023-03-17T18:50:23.183Z,100648.25
2023-03-17T18:52:50.970Z,100652.78
2023-03-17T18:55:18.308Z,100657.53
2023-03-17T18:57:46.922Z,100663.13
2023-03-17T19:00:17.337Z,100671.13
2023-03-17T19:02:45.469Z,100681.47
2023-03-17T19:05:14.301Z,100675.78
2023-03-17T19:07:41.933Z,100674.16
2023-03-17T19:10:12.183Z,100668.25
2023-03-17T19:12:39.698Z,100666.84
2023-03-17T19:15:09.514Z,100662.78
2023-03-17T19:17:36.880Z,100657.88
2023-03-17T19:20:05.628Z,100650.94
2023-03-17T19:22:34.799Z,100651.63
2023-03-17T19:25:04.087Z,100652.34
2023-03-17T19:27:31.652Z,100641.56
2023-03-17T19:29:58.557Z,100638.88
2023-03-17T19:32:25.625Z,100638.38
2023-03-17T19:34:53.128Z,100644.78
2023-03-17T19:37:20.015Z,100632.72
2023-03-17T19:39:48.294Z,100641.44
2023-03-17T19:42:16.121Z,100637.00
2023-03-17T19:44:43.165Z,100635.84
2023-03-17T19:47:11.106Z,100633.44
2023-03-17T19:49:38.798Z,100636.31
2023-03-17T19:52:07.577Z,100637.81
2023-03-17T19:54:35.083Z,100637.25
2023-03-17T19:57:03.639Z,100632.16
2023-03-17T19:59:31.117Z,100637.50
2023-03-17T20:01:58.618Z,100637.38
2023-03-17T20:04:26.094Z,100645.59
2023-03-17T20:06:55.627Z,100638.06
2023-03-17T20:09:24.595Z,100648.13
2023-03-17T20:11:53.216Z,100644.88
2023-03-17T20:14:21.464Z,100640.63
2023-03-17T20:16:49.661Z,100648.63
2023-03-17T20:19:17.108Z,100646.97
2023-03-17T20:21:44.513Z,100645.38
2023-03-17T20:24:12.818Z,100645.81
2023-03-17T20:26:41.498Z,100643.03
2023-03-17T20:29:08.650Z,100633.25
2023-03-17T20:31:38.569Z,100628.84
2023-03-17T20:34:06.162Z,100634.63
2023-03-17T20:36:33.449Z,100629.41
2023-03-17T20:39:00.461Z,100643.41
2023-03-17T20:41:27.494Z,100646.75
2023-03-17T20:43:54.383Z,100653.78
2023-03-17T20:46:23.970Z,100640.72
2023-03-17T20:48:58.363Z,100640.47
2023-03-17T20:51:27.151Z,100638.88
2023-03-17T20:53:55.089Z,100639.31
2023-03-17T20:56:24.437Z,100639.16
2023-03-17T20:58:52.992Z,100639.63
2023-03-17T21:01:21.437Z,100641.69
2023-03-17T21:03:50.067Z,100630.00
2023-03-17T21:06:19.559Z,100631.03
2023-03-17T21:08:46.921Z,100633.47
2023-03-17T21:11:18.358Z,100617.84
2023-03-17T21:13:46.436Z,100617.84
2023-03-17T21:16:18.842Z,100626.66
2023-03-17T21:18:45.756Z,100625.59
2023-03-17T21:21:12.732Z,100617.41
2023-03-17T21:23:41.554Z,100631.31
2023-03-17T21:26:09.435Z,100621.47
2023-03-17T21:28:41.255Z,100616.94
2023-03-17T21:31:10.001Z,100611.59
2023-03-17T21:33:37.723Z,100620.22
2023-03-17T21:36:06.539Z,100636.19
2023-03-17T21:38:33.791Z,100641.59
2023-03-17T21:41:23.241Z,100631.47
2023-03-17T21:43:50.448Z,100629.44
2023-03-17T21:46:17.468Z,100630.47
2023-03-17T21:48:44.572Z,100629.63
2023-03-17T21:51:11.577Z,100632.16
2023-03-17T21:53:38.675Z,100632.84
2023-03-17T21:56:08.312Z,100637.81
2023-03-17T21:58:35.411Z,100641.97
2023-03-17T22:01:03.060Z,100645.78
2023-03-17T22:03:30.242Z,100645.03
2023-03-17T22:05:57.163Z,100652.88
2023-03-17T22:08:25.015Z,100645.91
2023-03-17T22:10:52.230Z,100648.44
2023-03-17T22:13:20.426Z,100643.53
2023-03-17T22:15:47.606Z,100644.59
2023-03-17T22:18:14.596Z,100650.94
2023-03-17T22:20:41.482Z,100652.69
2023-03-17T22:23:08.359Z,100647.56
2023-03-17T22:25:35.238Z,100643.47
2023-03-17T22:28:02.082Z,100650.69
2023-03-17T22:30:30.719Z,100645.34
2023-03-17T22:32:57.829Z,100649.03
2023-03-17T22:35:24.961Z,100652.72
2023-03-17T22:37:51.805Z,100645.34
2023-03-17T22:40:19.031Z,100650.22
2023-03-17T22:42:46.669Z,100646.53
2023-03-17T22:45:14.176Z,100646.53
2023-03-17T22:47:42.578Z,100654.72
2023-03-17T22:50:11.707Z,100654.38
2023-03-17T22:52:38.945Z,100646.38
2023-03-17T22:55:07.613Z,100649.28
2023-03-17T22:57:34.627Z,100647.00
2023-03-17T23:00:01.853Z,100650.53
2023-03-17T23:02:29.483Z,100656.44
2023-03-17T23:04:57.724Z,100652.28
2023-03-17T23:07:24.646Z,100648.59
2023-03-17T23:09:51.633Z,100646.53
2023-03-17T23:12:22.866Z,100642.03
2023-03-17T23:14:49.903Z,100652.06
2023-03-17T23:17:16.846Z,100653.09
2023-03-17T23:19:43.783Z,100651.84
2023-03-17T23:22:12.474Z,100655.34
2023-03-17T23:24:39.350Z,100647.56
2023-03-17T23:27:06.651Z,100649.38
2023-03-17T23:29:33.557Z,100645.94
2023-03-17T23:32:01.088Z,100644.31
2023-03-17T23:34:28.395Z,100658.19
2023-03-17T23:36:55.226Z,100651.84
2023-03-17T23:39:23.972Z,100646.09
2023-03-17T23:41:51.127Z,100650.94
2023-03-17T23:44:18.046Z,100648.88
2023-03-17T23:46:45.128Z,100654.19
2023-03-17T23:49:12.156Z,100657.47
2023-03-17T23:51:40.688Z,100659.53
2023-03-17T23:54:08.278Z,100654.66
2023-03-17T23:56:36.907Z,100654.06
2023-03-17T23:59:04.200Z,100658.78
